sensor_id;sensor_type;location;lat;lon;timestamp;pressure;altitude;pressure_sealevel;temperature;humidity
21449;BME280;10885;52.830;13.788;2023-04-28T05:13:59;101429.81;;;3.21;72.99
21449;BME280;10885;52.830;13.788;2023-04-28T05:19:22;101420.03;;;3.41;72.72
21449;BME280;10885;52.830;13.788;2023-04-28T05:24:43;101421.38;;;3.55;71.78
21449;BME280;10885;52.830;13.788;2023-04-28T05:30:08;101422.00;;;3.78;71.26
21449;BME280;10885;52.830;13.788;2023-04-28T05:35:30;101418.72;;;3.97;71.31
21449;BME280;10885;52.830;13.788;2023-04-28T05:40:52;101417.19;;;4.25;71.05
21449;BME280;10885;52.830;13.788;2023-04-28T05:46:13;101417.72;;;4.49;70.95
21449;BME280;10885;52.830;13.788;2023-04-28T05:51:42;101416.59;;;4.82;70.01
21449;BME280;10885;52.830;13.788;2023-04-28T05:57:04;101406.72;;;5.12;68.23
21449;BME280;10885;52.830;13.788;2023-04-28T06:02:26;101402.03;;;5.45;67.41
21449;BME280;10885;52.830;13.788;2023-04-28T06:07:49;101398.84;;;5.75;66.34
21449;BME280;10885;52.830;13.788;2023-04-28T06:13:10;101397.19;;;6.13;65.18
21449;BME280;10885;52.830;13.788;2023-04-28T06:18:32;101383.31;;;6.49;64.48
21449;BME280;10885;52.830;13.788;2023-04-28T06:23:54;101382.13;;;6.85;62.42
21449;BME280;10885;52.830;13.788;2023-04-28T06:29:16;101376.16;;;7.26;61.11
21449;BME280;10885;52.830;13.788;2023-04-28T06:34:37;101373.44;;;7.75;59.17
21449;BME280;10885;52.830;13.788;2023-04-28T06:39:59;101369.03;;;8.27;56.82
21449;BME280;10885;52.830;13.788;2023-04-28T06:45:21;101357.16;;;8.82;55.39
21449;BME280;10885;52.830;13.788;2023-04-28T06:50:43;101362.78;;;9.46;52.49
21449;BME280;10885;52.830;13.788;2023-04-28T06:56:04;101347.00;;;9.99;51.69
21449;BME280;10885;52.830;13.788;2023-04-28T07:01:25;101343.78;;;10.62;51.71
21449;BME280;10885;52.830;13.788;2023-04-28T07:06:46;101340.69;;;11.43;48.03
21449;BME280;10885;52.830;13.788;2023-04-28T07:12:08;101333.88;;;12.23;45.95
21449;BME280;10885;52.830;13.788;2023-04-28T07:17:28;101328.88;;;12.96;43.85
21449;BME280;10885;52.830;13.788;2023-04-28T07:22:49;101312.94;;;13.92;41.91
21449;BME280;10885;52.830;13.788;2023-04-28T07:28:11;101310.72;;;15.82;38.57
21449;BME280;10885;52.830;13.788;2023-04-28T07:33:33;101315.81;;;19.99;31.30
21449;BME280;10885;52.830;13.788;2023-04-28T07:38:55;101309.03;;;24.55;24.12
21449;BME280;10885;52.830;13.788;2023-04-28T07:44:15;101332.50;;;26.71;21.37
21449;BME280;10885;52.830;13.788;2023-04-28T07:49:37;101306.94;;;26.33;19.93
21449;BME280;10885;52.830;13.788;2023-04-28T07:54:58;101312.09;;;26.18;19.84
21449;BME280;10885;52.830;13.788;2023-04-28T08:00:19;101300.22;;;21.24;24.26
21449;BME280;10885;52.830;13.788;2023-04-28T08:05:41;101288.16;;;19.21;27.92
21449;BME280;10885;52.830;13.788;2023-04-28T08:11:02;101289.25;;;18.29;29.90
21449;BME280;10885;52.830;13.788;2023-04-28T08:16:23;101284.34;;;18.13;31.17
21449;BME280;10885;52.830;13.788;2023-04-28T08:21:44;101288.28;;;18.03;31.40
21449;BME280;10885;52.830;13.788;2023-04-28T08:27:05;101277.06;;;17.17;28.97
21449;BME280;10885;52.830;13.788;2023-04-28T08:32:26;101268.38;;;16.76;30.31
21449;BME280;10885;52.830;13.788;2023-04-28T08:37:47;101271.63;;;16.32;31.40
21449;BME280;10885;52.830;13.788;2023-04-28T08:43:09;101266.22;;;16.46;32.35
21449;BME280;10885;52.830;13.788;2023-04-28T08:48:38;101255.44;;;17.38;29.97
21449;BME280;10885;52.830;13.788;2023-04-28T08:54:02;101253.16;;;17.68;29.91
21449;BME280;10885;52.830;13.788;2023-04-28T08:59:39;101247.91;;;18.82;28.42
21449;BME280;10885;52.830;13.788;2023-04-28T09:05:00;101236.81;;;19.97;27.48
21449;BME280;10885;52.830;13.788;2023-04-28T09:10:23;101233.66;;;20.39;26.04
21449;BME280;10885;52.830;13.788;2023-04-28T09:15:44;101223.19;;;20.36;26.46
21449;BME280;10885;52.830;13.788;2023-04-28T09:21:07;101220.06;;;21.16;25.82
21449;BME280;10885;52.830;13.788;2023-04-28T09:26:47;101219.66;;;22.14;25.16
21449;BME280;10885;52.830;13.788;2023-04-28T09:32:19;101219.25;;;22.84;24.10
21449;BME280;10885;52.830;13.788;2023-04-28T09:37:40;101193.63;;;22.63;23.15
21449;BME280;10885;52.830;13.788;2023-04-28T09:43:03;101193.84;;;23.91;23.56
21449;BME280;10885;52.830;13.788;2023-04-28T09:48:33;101191.75;;;23.08;22.86
21449;BME280;10885;52.830;13.788;2023-04-28T09:53:58;101193.00;;;21.87;24.26
21449;BME280;10885;52.830;13.788;2023-04-28T09:59:19;101185.34;;;22.38;24.03
21449;BME280;10885;52.830;13.788;2023-04-28T10:04:43;101187.41;;;22.12;24.11
21449;BME280;10885;52.830;13.788;2023-04-28T10:10:06;101170.41;;;21.10;25.39
21449;BME280;10885;52.830;13.788;2023-04-28T10:15:27;101153.81;;;20.38;26.02
21449;BME280;10885;52.830;13.788;2023-04-28T10:20:56;101144.38;;;21.11;26.11
21449;BME280;10885;52.830;13.788;2023-04-28T10:26:18;101139.28;;;20.79;25.49
21449;BME280;10885;52.830;13.788;2023-04-28T10:38:10;101125.63;;;20.21;26.48
21449;BME280;10885;52.830;13.788;2023-04-28T10:43:36;101118.09;;;20.65;26.30
21449;BME280;10885;52.830;13.788;2023-04-28T10:48:59;101117.41;;;20.39;25.85
21449;BME280;10885;52.830;13.788;2023-04-28T10:54:20;101104.94;;;19.65;27.05
21449;BME280;10885;52.830;13.788;2023-04-28T10:59:41;101099.44;;;20.50;27.04
21449;BME280;10885;52.830;13.788;2023-04-28T11:05:12;101097.78;;;20.89;26.11
21449;BME280;10885;52.830;13.788;2023-04-28T11:16:48;101090.09;;;21.74;25.70
21449;BME280;10885;52.830;13.788;2023-04-28T11:22:18;101076.16;;;22.19;24.72
21449;BME280;10885;52.830;13.788;2023-04-28T11:27:39;101075.84;;;22.51;24.53
21449;BME280;10885;52.830;13.788;2023-04-28T11:33:01;101078.19;;;22.89;24.85
21449;BME280;10885;52.830;13.788;2023-04-28T11:38:22;101074.53;;;21.77;24.81
21449;BME280;10885;52.830;13.788;2023-04-28T11:43:43;101070.09;;;21.73;25.24
21449;BME280;10885;52.830;13.788;2023-04-28T11:49:07;101074.81;;;21.48;25.82
21449;BME280;10885;52.830;13.788;2023-04-28T11:54:28;101072.94;;;21.85;26.03
21449;BME280;10885;52.830;13.788;2023-04-28T11:59:49;101065.75;;;20.56;26.18
21449;BME280;10885;52.830;13.788;2023-04-28T12:05:11;101053.63;;;20.93;26.71
21449;BME280;10885;52.830;13.788;2023-04-28T12:10:32;101054.28;;;21.65;26.59
21449;BME280;10885;52.830;13.788;2023-04-28T12:15:53;101042.13;;;21.65;26.32
21449;BME280;10885;52.830;13.788;2023-04-28T12:21:20;101034.47;;;21.75;26.08
21449;BME280;10885;52.830;13.788;2023-04-28T12:26:41;101026.59;;;21.29;27.02
21449;BME280;10885;52.830;13.788;2023-04-28T12:32:03;101023.38;;;21.87;26.36
21449;BME280;10885;52.830;13.788;2023-04-28T12:37:24;101023.25;;;21.79;27.63
21449;BME280;10885;52.830;13.788;2023-04-28T12:42:45;101009.22;;;22.22;27.78
21449;BME280;10885;52.830;13.788;2023-04-28T12:48:07;101007.13;;;22.03;27.50
21449;BME280;10885;52.830;13.788;2023-04-28T12:53:27;101008.16;;;21.64;27.84
21449;BME280;10885;52.830;13.788;2023-04-28T12:58:48;100998.50;;;21.16;28.26
21449;BME280;10885;52.830;13.788;2023-04-28T13:04:10;100994.25;;;20.42;28.66
21449;BME280;10885;52.830;13.788;2023-04-28T13:09:32;100990.25;;;19.86;30.00
21449;BME280;10885;52.830;13.788;2023-04-28T13:14:53;100978.13;;;19.54;30.06
21449;BME280;10885;52.830;13.788;2023-04-28T13:20:15;100974.53;;;19.18;30.89
21449;BME280;10885;52.830;13.788;2023-04-28T13:25:35;100955.97;;;18.77;31.09
21449;BME280;10885;52.830;13.788;2023-04-28T13:30:56;100949.25;;;18.55;32.30
21449;BME280;10885;52.830;13.788;2023-04-28T13:36:18;100944.31;;;18.36;32.12
21449;BME280;10885;52.830;13.788;2023-04-28T13:41:39;100950.41;;;17.83;32.91
21449;BME280;10885;52.830;13.788;2023-04-28T13:47:00;100941.63;;;18.05;33.04
21449;BME280;10885;52.830;13.788;2023-04-28T13:52:21;100933.66;;;18.26;32.76
21449;BME280;10885;52.830;13.788;2023-04-28T13:57:42;100926.41;;;18.16;32.37
21449;BME280;10885;52.830;13.788;2023-04-28T14:03:03;100931.13;;;18.01;32.18
21449;BME280;10885;52.830;13.788;2023-04-28T14:08:25;100919.38;;;17.86;32.03
21449;BME280;10885;52.830;13.788;2023-04-28T14:13:47;100908.84;;;17.56;33.19
21449;BME280;10885;52.830;13.788;2023-04-28T14:19:08;100908.59;;;17.24;33.50
21449;BME280;10885;52.830;13.788;2023-04-28T14:24:30;100905.94;;;17.23;33.43
21449;BME280;10885;52.830;13.788;2023-04-28T14:29:51;100894.28;;;17.34;33.67
21449;BME280;10885;52.830;13.788;2023-04-28T14:35:13;100894.28;;;17.10;33.34
21449;BME280;10885;52.830;13.788;2023-04-28T14:40:35;100889.41;;;16.94;33.77
21449;BME280;10885;52.830;13.788;2023-04-28T14:45:56;100886.63;;;16.89;33.60
21449;BME280;10885;52.830;13.788;2023-04-28T14:51:18;100875.63;;;16.72;34.34
21449;BME280;10885;52.830;13.788;2023-04-28T14:56:39;100877.69;;;16.58;34.10
21449;BME280;10885;52.830;13.788;2023-04-28T15:02:00;100865.00;;;16.19;35.12
21449;BME280;10885;52.830;13.788;2023-04-28T15:07:21;100859.88;;;15.98;35.48
21449;BME280;10885;52.830;13.788;2023-04-28T15:12:43;100849.53;;;15.98;36.07
21449;BME280;10885;52.830;13.788;2023-04-28T15:18:05;100851.19;;;15.96;35.78
21449;BME280;10885;52.830;13.788;2023-04-28T15:23:26;100845.75;;;15.90;36.15
21449;BME280;10885;52.830;13.788;2023-04-28T15:28:47;100838.91;;;15.71;36.30
21449;BME280;10885;52.830;13.788;2023-04-28T15:34:08;100837.09;;;15.68;36.61
21449;BME280;10885;52.830;13.788;2023-04-28T15:39:29;100839.56;;;15.65;37.97
21449;BME280;10885;52.830;13.788;2023-04-28T15:44:52;100835.66;;;15.75;39.35
21449;BME280;10885;52.830;13.788;2023-04-28T15:50:13;100846.16;;;15.78;38.29
21449;BME280;10885;52.830;13.788;2023-04-28T15:55:35;100834.44;;;15.67;38.35
21449;BME280;10885;52.830;13.788;2023-04-28T16:00:57;100828.66;;;15.51;39.06
21449;BME280;10885;52.830;13.788;2023-04-28T16:06:19;100828.06;;;15.38;39.16
21449;BME280;10885;52.830;13.788;2023-04-28T16:11:40;100819.03;;;15.26;39.60
21449;BME280;10885;52.830;13.788;2023-04-28T16:17:01;100817.56;;;15.33;39.82
21449;BME280;10885;52.830;13.788;2023-04-28T16:22:23;100815.31;;;15.41;40.41
21449;BME280;10885;52.830;13.788;2023-04-28T16:27:45;100810.66;;;15.32;41.10
21449;BME280;10885;52.830;13.788;2023-04-28T16:33:06;100816.63;;;15.31;42.08
21449;BME280;10885;52.830;13.788;2023-04-28T16:38:28;100812.94;;;15.26;42.27
21449;BME280;10885;52.830;13.788;2023-04-28T16:43:49;100806.72;;;15.21;42.76
21449;BME280;10885;52.830;13.788;2023-04-28T16:49:10;100803.97;;;15.16;44.50
21449;BME280;10885;52.830;13.788;2023-04-28T16:54:32;100793.50;;;15.13;44.28
21449;BME280;10885;52.830;13.788;2023-04-28T16:59:53;100794.50;;;15.17;45.44
21449;BME280;10885;52.830;13.788;2023-04-28T17:05:14;100793.91;;;15.03;43.65
21449;BME280;10885;52.830;13.788;2023-04-28T17:10:38;100792.03;;;14.99;44.25
21449;BME280;10885;52.830;13.788;2023-04-28T17:15:59;100790.50;;;14.83;44.81
21449;BME280;10885;52.830;13.788;2023-04-28T17:21:22;100796.34;;;14.79;46.23
21449;BME280;10885;52.830;13.788;2023-04-28T17:26:42;100791.97;;;14.78;48.27
21449;BME280;10885;52.830;13.788;2023-04-28T17:32:03;100785.59;;;14.69;49.32
21449;BME280;10885;52.830;13.788;2023-04-28T17:37:25;100780.69;;;14.56;50.79
21449;BME280;10885;52.830;13.788;2023-04-28T17:42:46;100782.63;;;14.42;50.79
21449;BME280;10885;52.830;13.788;2023-04-28T17:48:08;100784.47;;;14.25;50.62
21449;BME280;10885;52.830;13.788;2023-04-28T17:53:29;100788.19;;;14.12;52.59
21449;BME280;10885;52.830;13.788;2023-04-28T17:58:50;100782.16;;;13.94;52.98
21449;BME280;10885;52.830;13.788;2023-04-28T18:04:11;100778.94;;;13.80;54.60
21449;BME280;10885;52.830;13.788;2023-04-28T18:09:32;100775.84;;;13.69;54.18
21449;BME280;10885;52.830;13.788;2023-04-28T18:14:53;100772.13;;;13.63;55.76
21449;BME280;10885;52.830;13.788;2023-04-28T18:20:13;100774.31;;;13.55;57.04
21449;BME280;10885;52.830;13.788;2023-04-28T18:25:34;100776.59;;;13.49;57.25
21449;BME280;10885;52.830;13.788;2023-04-28T18:30:56;100778.84;;;13.43;55.96
21449;BME280;10885;52.830;13.788;2023-04-28T18:36:17;100772.31;;;13.31;56.15
21449;BME280;10885;52.830;13.788;2023-04-28T18:41:38;100777.38;;;13.30;57.61
21449;BME280;10885;52.830;13.788;2023-04-28T18:47:00;100778.97;;;13.28;57.99
21449;BME280;10885;52.830;13.788;2023-04-28T18:52:21;100771.06;;;13.25;58.83
21449;BME280;10885;52.830;13.788;2023-04-28T18:57:41;100767.31;;;13.18;60.52
21449;BME280;10885;52.830;13.788;2023-04-28T19:03:03;100766.13;;;13.11;59.50
21449;BME280;10885;52.830;13.788;2023-04-28T19:08:24;100762.66;;;13.11;59.53
21449;BME280;10885;52.830;13.788;2023-04-28T19:13:45;100771.88;;;13.06;59.47
21449;BME280;10885;52.830;13.788;2023-04-28T19:19:06;100766.53;;;13.03;59.55
21449;BME280;10885;52.830;13.788;2023-04-28T19:24:28;100765.66;;;13.02;59.75
21449;BME280;10885;52.830;13.788;2023-04-28T19:29:49;100764.78;;;13.02;60.09
21449;BME280;10885;52.830;13.788;2023-04-28T19:35:11;100761.00;;;12.95;59.44
21449;BME280;10885;52.830;13.788;2023-04-28T19:40:33;100755.41;;;12.86;59.79
21449;BME280;10885;52.830;13.788;2023-04-28T19:45:54;100755.97;;;12.80;61.09
21449;BME280;10885;52.830;13.788;2023-04-28T19:51:16;100757.78;;;12.81;61.65
21449;BME280;10885;52.830;13.788;2023-04-28T19:56:38;100743.91;;;12.79;61.80
21449;BME280;10885;52.830;13.788;2023-04-28T20:01:59;100747.97;;;12.74;62.28
21449;BME280;10885;52.830;13.788;2023-04-28T20:07:19;100753.09;;;12.74;62.94
21449;BME280;10885;52.830;13.788;2023-04-28T20:12:40;100741.63;;;12.67;61.44
21449;BME280;10885;52.830;13.788;2023-04-28T20:18:01;100734.69;;;12.66;61.94
21449;BME280;10885;52.830;13.788;2023-04-28T20:23:22;100746.81;;;12.69;63.71
21449;BME280;10885;52.830;13.788;2023-04-28T20:28:45;100748.38;;;12.65;63.63
21449;BME280;10885;52.830;13.788;2023-04-28T20:34:07;100735.44;;;12.64;63.76
21449;BME280;10885;52.830;13.788;2023-04-28T20:39:28;100730.78;;;12.57;63.87
21449;BME280;10885;52.830;13.788;2023-04-28T20:44:49;100737.53;;;12.54;64.81
21449;BME280;10885;52.830;13.788;2023-04-28T20:50:11;100739.78;;;12.48;63.87
21449;BME280;10885;52.830;13.788;2023-04-28T20:55:32;100732.06;;;12.48;64.12
21449;BME280;10885;52.830;13.788;2023-04-28T21:00:53;100719.69;;;12.41;62.81
21449;BME280;10885;52.830;13.788;2023-04-28T21:06:14;100720.84;;;12.30;61.30
21449;BME280;10885;52.830;13.788;2023-04-28T21:11:35;100705.09;;;12.24;62.99
21449;BME280;10885;52.830;13.788;2023-04-28T21:16:56;100709.28;;;12.22;62.98
21449;BME280;10885;52.830;13.788;2023-04-28T21:22:17;100689.00;;;12.11;61.26
21449;BME280;10885;52.830;13.788;2023-04-28T21:27:37;100690.16;;;12.00;61.54
21449;BME280;10885;52.830;13.788;2023-04-28T21:32:58;100681.22;;;11.93;61.55
21449;BME280;10885;52.830;13.788;2023-04-28T21:38:20;100675.50;;;11.99;61.95
21449;BME280;10885;52.830;13.788;2023-04-28T21:43:42;100683.31;;;12.01;61.79
21449;BME280;10885;52.830;13.788;2023-04-28T21:49:02;100684.19;;;12.01;62.12
21449;BME280;10885;52.830;13.788;2023-04-28T21:54:24;100685.41;;;12.08;62.04
